Long Lake, Indiana
Current Conditions -  °F | °C
As of 12:55 PM on Tuesday 21 Oct 2014 (Local Time) from KANQ Reporting Station
Overcast Overcast  
Wind Chill:   Ceiling: 2700
Heat Index:   Visibility: 10mi
Dew Point:   Wind: 8mph
Humidity: 57%   Direction: 10°N
Pressure: 30.08"   Gusts: NA
Location:  41.7284°N, 84.9169°W
Report Text: KANQ 211655Z AUTO 01007KT 10SM SCT019 OVC027 09/01 A3008 RMK
Loading
Personal Weather Stations






























Interactive Weather Map
Tropical Storm Tracking
New forecast layout! Learn more

10-Day Weather Forecast

Advertisements
Track Severe Weather on mobile